sensor_id;sensor_type;location;lat;lon;timestamp;P1;P2;P0
47709;PMS7003;33473;51.640;5.892;2023-03-25T00:01:20;0.01;2.19;1.32
47709;PMS7003;33473;51.640;5.892;2023-03-25T00:14:39;0.36;1.75;1.21
47709;PMS7003;33473;51.640;5.892;2023-03-25T00:27:59;0.01;1.97;1.32
47709;PMS7003;33473;51.640;5.892;2023-03-25T00:41:19;0.01;2.08;1.21
47709;PMS7003;33473;51.640;5.892;2023-03-25T00:54:39;0.01;1.64;1.32
47709;PMS7003;33473;51.640;5.892;2023-03-25T01:07:58;0.01;1.86;
47709;PMS7003;33473;51.640;5.892;2023-03-25T01:21:18;0.01;1.64;1.21
47709;PMS7003;33473;51.640;5.892;2023-03-25T01:34:38;0.01;1.75;1.32
47709;PMS7003;33473;51.640;5.892;2023-03-25T01:47:57;1.44;2.08;1.43
47709;PMS7003;33473;51.640;5.892;2023-03-25T02:01:17;0.01;1.75;1.32
47709;PMS7003;33473;51.640;5.892;2023-03-25T02:14:37;0.01;2.08;1.32
47709;PMS7003;33473;51.640;5.892;2023-03-25T02:27:56;0.01;1.97;1.43
47709;PMS7003;33473;51.640;5.892;2023-03-25T02:41:16;0.01;1.97;1.32
47709;PMS7003;33473;51.640;5.892;2023-03-25T02:54:36;0.01;2.08;1.32
47709;PMS7003;33473;51.640;5.892;2023-03-25T03:07:55;0.84;2.19;1.43
47709;PMS7003;33473;51.640;5.892;2023-03-25T03:21:15;0.72;2.08;1.43
47709;PMS7003;33473;51.640;5.892;2023-03-25T03:34:35;0.01;1.97;1.32
47709;PMS7003;33473;51.640;5.892;2023-03-25T03:47:54;0.01;1.97;1.32
47709;PMS7003;33473;51.640;5.892;2023-03-25T04:01:14;3.97;2.19;1.32
47709;PMS7003;33473;51.640;5.892;2023-03-25T04:14:34;1.32;2.41;1.43
47709;PMS7003;33473;51.640;5.892;2023-03-25T04:27:54;1.08;2.19;1.54
47709;PMS7003;33473;51.640;5.892;2023-03-25T04:41:13;0.01;2.3;1.32
47709;PMS7003;33473;51.640;5.892;2023-03-25T04:54:33;0.01;1.86;1.21
47709;PMS7003;33473;51.640;5.892;2023-03-25T05:07:53;0.01;1.86;1.32
47709;PMS7003;33473;51.640;5.892;2023-03-25T05:21:12;0.01;1.86;1.32
47709;PMS7003;33473;51.640;5.892;2023-03-25T05:34:32;0.01;1.86;1.32
47709;PMS7003;33473;51.640;5.892;2023-03-25T05:47:52;0.01;1.97;1.21
47709;PMS7003;33473;51.640;5.892;2023-03-25T06:01:11;0.01;1.97;1.43
47709;PMS7003;33473;51.640;5.892;2023-03-25T06:14:31;1.08;2.08;1.43
47709;PMS7003;33473;51.640;5.892;2023-03-25T06:27:51;0.01;2.08;1.43
47709;PMS7003;33473;51.640;5.892;2023-03-25T06:41:10;0.01;2.19;1.43
47709;PMS7003;33473;51.640;5.892;2023-03-25T06:54:30;0.01;1.97;1.32
47709;PMS7003;33473;51.640;5.892;2023-03-25T07:07:50;0.01;2.52;1.32
47709;PMS7003;33473;51.640;5.892;2023-03-25T07:21:09;0.01;2.52;1.43
47709;PMS7003;33473;51.640;5.892;2023-03-25T07:34:29;0.36;2.95;1.64
47709;PMS7003;33473;51.640;5.892;2023-03-25T07:47:49;3.73;2.73;1.64
47709;PMS7003;33473;51.640;5.892;2023-03-25T08:01:08;0.12;2.52;1.54
47709;PMS7003;33473;51.640;5.892;2023-03-25T08:14:28;0.01;2.73;1.43
47709;PMS7003;33473;51.640;5.892;2023-03-25T08:27:47;1.44;3.06;1.75
47709;PMS7003;33473;51.640;5.892;2023-03-25T08:41:07;0.72;3.06;1.75
47709;PMS7003;33473;51.640;5.892;2023-03-25T08:54:27;0.84;3.06;1.97
47709;PMS7003;33473;51.640;5.892;2023-03-25T09:07:46;2.28;3.93;2.41
47709;PMS7003;33473;51.640;5.892;2023-03-25T09:21:06;2.04;3.5;2.08
47709;PMS7003;33473;51.640;5.892;2023-03-25T09:34:26;2.76;3.93;2.19
47709;PMS7003;33473;51.640;5.892;2023-03-25T09:47:46;3.0;3.61;2.19
47709;PMS7003;33473;51.640;5.892;2023-03-25T10:01:05;3.85;4.15;2.41
47709;PMS7003;33473;51.640;5.892;2023-03-25T10:14:25;0.96;3.82;2.41
47709;PMS7003;33473;51.640;5.892;2023-03-25T10:27:45;4.93;4.91;2.52
47709;PMS7003;33473;51.640;5.892;2023-03-25T10:41:04;2.64;4.7;2.52
47709;PMS7003;33473;51.640;5.892;2023-03-25T10:54:24;4.09;6.0;3.28
47709;PMS7003;33473;51.640;5.892;2023-03-25T11:07:44;9.73;5.9;3.39
47709;PMS7003;33473;51.640;5.892;2023-03-25T11:21:03;13.69;7.64;4.7
47709;PMS7003;33473;51.640;5.892;2023-03-25T11:34:23;4.81;6.99;4.04
47709;PMS7003;33473;51.640;5.892;2023-03-25T11:47:43;0.6;3.17;2.08
47709;PMS7003;33473;51.640;5.892;2023-03-25T12:01:02;0.01;1.75;1.21
47709;PMS7003;33473;51.640;5.892;2023-03-25T12:14:22;0.01;1.75;1.32
47709;PMS7003;33473;51.640;5.892;2023-03-25T12:27:42;0.6;2.41;1.43
47709;PMS7003;33473;51.640;5.892;2023-03-25T12:41:01;0.84;2.52;1.43
47709;PMS7003;33473;51.640;5.892;2023-03-25T12:54:21;0.36;2.41;1.54
47709;PMS7003;33473;51.640;5.892;2023-03-25T13:07:41;0.72;2.73;1.75
47709;PMS7003;33473;51.640;5.892;2023-03-25T13:21:00;0.12;2.95;2.08
47709;PMS7003;33473;51.640;5.892;2023-03-25T13:34:20;0.6;3.28;2.19
47709;PMS7003;33473;51.640;5.892;2023-03-25T13:47:40;11.17;4.7;2.84
47709;PMS7003;33473;51.640;5.892;2023-03-25T14:01:00;2.04;3.17;1.86
47709;PMS7003;33473;51.640;5.892;2023-03-25T14:14:19;0.6;2.19;1.21
47709;PMS7003;33473;51.640;5.892;2023-03-25T14:27:39;0.01;1.43;
47709;PMS7003;33473;51.640;5.892;2023-03-25T14:40:58;0.01;1.54;1.21
47709;PMS7003;33473;51.640;5.892;2023-03-25T14:54:18;0.01;1.97;1.21
47709;PMS7003;33473;51.640;5.892;2023-03-25T15:07:38;0.01;1.54;
47709;PMS7003;33473;51.640;5.892;2023-03-25T15:20:58;0.01;1.54;
47709;PMS7003;33473;51.640;5.892;2023-03-25T15:34:17;0.01;1.54;
47709;PMS7003;33473;51.640;5.892;2023-03-25T15:47:37;0.01;1.75;1.21
47709;PMS7003;33473;51.640;5.892;2023-03-25T16:00:57;0.01;1.75;1.21
47709;PMS7003;33473;51.640;5.892;2023-03-25T16:14:16;0.0;1.86;1.21
47709;PMS7003;33473;51.640;5.892;2023-03-25T16:27:36;0.01;1.64;1.21
47709;PMS7003;33473;51.640;5.892;2023-03-25T16:40:56;7.81;2.52;1.21
47709;PMS7003;33473;51.640;5.892;2023-03-25T16:54:15;1.68;2.41;1.21
47709;PMS7003;33473;51.640;5.892;2023-03-25T17:07:35;3.73;2.95;1.32
47709;PMS7003;33473;51.640;5.892;2023-03-25T17:20:55;0.01;2.08;1.32
47709;PMS7003;33473;51.640;5.892;2023-03-25T17:34:14;0.01;2.19;1.32
47709;PMS7003;33473;51.640;5.892;2023-03-25T17:47:34;1.92;2.73;
47709;PMS7003;33473;51.640;5.892;2023-03-25T18:00:54;0.48;2.62;1.32
47709;PMS7003;33473;51.640;5.892;2023-03-25T18:14:13;5.29;2.41;1.32
47709;PMS7003;33473;51.640;5.892;2023-03-25T18:27:33;1.2;2.84;1.43
47709;PMS7003;33473;51.640;5.892;2023-03-25T18:40:53;3.0;2.95;1.32
47709;PMS7003;33473;51.640;5.892;2023-03-25T18:54:12;3.48;2.95;1.75
47709;PMS7003;33473;51.640;5.892;2023-03-25T19:07:32;4.81;3.61;1.86
47709;PMS7003;33473;51.640;5.892;2023-03-25T19:20:52;1.08;2.84;1.64
47709;PMS7003;33473;51.640;5.892;2023-03-25T19:34:12;2.4;2.73;1.75
47709;PMS7003;33473;51.640;5.892;2023-03-25T19:47:31;3.0;2.84;1.64
47709;PMS7003;33473;51.640;5.892;2023-03-25T20:00:51;0.01;2.3;1.43
47709;PMS7003;33473;51.640;5.892;2023-03-25T20:14:11;8.29;2.41;1.64
47709;PMS7003;33473;51.640;5.892;2023-03-25T20:27:30;0.01;1.86;1.32
47709;PMS7003;33473;51.640;5.892;2023-03-25T20:40:50;0.01;1.32;
47709;PMS7003;33473;51.640;5.892;2023-03-25T20:54:10;0.01;1.97;1.32
47709;PMS7003;33473;51.640;5.892;2023-03-25T21:07:29;0.48;2.41;1.64
47709;PMS7003;33473;51.640;5.892;2023-03-25T21:20:49;0.01;2.73;1.97
47709;PMS7003;33473;51.640;5.892;2023-03-25T21:34:08;0.0;2.41;1.86
47709;PMS7003;33473;51.640;5.892;2023-03-25T21:47:28;0.01;2.62;1.75
47709;PMS7003;33473;51.640;5.892;2023-03-25T22:00:48;1.2;3.5;1.97
47709;PMS7003;33473;51.640;5.892;2023-03-25T22:14:08;1.68;3.28;2.08
47709;PMS7003;33473;51.640;5.892;2023-03-25T22:27:27;2.64;3.61;1.86
47709;PMS7003;33473;51.640;5.892;2023-03-25T22:40:47;3.85;3.61;2.3
47709;PMS7003;33473;51.640;5.892;2023-03-25T22:54:06;7.21;4.8;3.06
47709;PMS7003;33473;51.640;5.892;2023-03-25T23:07:26;4.57;5.46;3.39
47709;PMS7003;33473;51.640;5.892;2023-03-25T23:20:46;4.33;4.91;3.39
47709;PMS7003;33473;51.640;5.892;2023-03-25T23:34:05;7.69;7.2;4.15
47709;PMS7003;33473;51.640;5.892;2023-03-25T23:47:25;9.25;8.18;4.48
